createdAt,value
2022-10-18T00:00:19.911Z,7.80
2022-10-18T00:03:09.360Z,8.82
2022-10-18T00:05:38.456Z,8.38
2022-10-18T00:08:07.858Z,8.68
2022-10-18T00:10:36.946Z,8.13
2022-10-18T00:13:06.318Z,8.73
2022-10-18T00:15:36.867Z,7.82
2022-10-18T00:18:06.463Z,7.38
2022-10-18T00:20:35.540Z,7.68
2022-10-18T00:23:04.785Z,7.63
2022-10-18T00:25:33.827Z,8.70
2022-10-18T00:28:03.072Z,7.55
2022-10-18T00:30:32.180Z,8.05
2022-10-18T00:33:03.159Z,7.57
2022-10-18T00:35:32.319Z,6.95
2022-10-18T00:38:01.602Z,6.13
2022-10-18T00:40:30.686Z,6.40
2022-10-18T00:42:59.967Z,6.63
2022-10-18T00:45:29.408Z,7.45
2022-10-18T00:48:04.176Z,5.78
2022-10-18T00:50:35.382Z,5.70
2022-10-18T00:53:07.824Z,5.65
2022-10-18T00:55:37.072Z,5.18
2022-10-18T00:58:06.967Z,4.32
2022-10-18T01:00:39.198Z,3.90
2022-10-18T01:03:10.478Z,3.83
2022-10-18T01:05:42.857Z,3.72
2022-10-18T01:08:37.234Z,3.10
2022-10-18T01:11:24.751Z,2.80
2022-10-18T01:14:04.440Z,2.80
2022-10-18T01:16:40.274Z,2.38
2022-10-18T01:19:29.990Z,2.20
2022-10-18T01:22:04.141Z,2.50
2022-10-18T01:25:08.473Z,2.33
2022-10-18T01:27:50.096Z,2.33
2022-10-18T01:30:50.996Z,2.40
2022-10-18T01:33:35.147Z,2.58
2022-10-18T01:36:08.522Z,2.38
2022-10-18T01:38:40.281Z,2.45
2022-10-18T01:41:14.810Z,2.45
2022-10-18T01:43:47.813Z,2.80
2022-10-18T01:46:23.509Z,1.83
2022-10-18T01:48:54.403Z,2.22
2022-10-18T01:51:27.186Z,1.95
2022-10-18T01:53:56.765Z,2.10
2022-10-18T01:56:36.371Z,2.15
2022-10-18T01:59:30.510Z,2.40
2022-10-18T02:02:10.773Z,2.00
2022-10-18T02:04:45.670Z,2.00
2022-10-18T02:09:53.029Z,2.17
2022-10-18T02:12:24.002Z,2.03
2022-10-18T02:14:54.529Z,2.28
2022-10-18T02:17:28.047Z,2.30
2022-10-18T02:19:58.374Z,2.20
2022-10-18T02:22:32.388Z,1.90
2022-10-18T02:25:06.164Z,2.35
2022-10-18T02:27:35.808Z,2.20
2022-10-18T02:35:26.980Z,2.15
2022-10-18T02:37:58.273Z,2.17
2022-10-18T02:40:28.261Z,2.05
2022-10-18T02:42:59.284Z,2.00
2022-10-18T02:45:29.216Z,2.10
2022-10-18T02:47:58.473Z,1.98
2022-10-18T02:50:29.020Z,2.00
2022-10-18T02:52:58.336Z,2.10
2022-10-18T02:58:01.729Z,1.65
2022-10-18T03:00:31.144Z,1.90
2022-10-18T03:03:00.442Z,1.88
2022-10-18T03:05:30.955Z,1.65
2022-10-18T03:08:00.223Z,2.08
2022-10-18T03:10:29.456Z,1.75
2022-10-18T03:12:58.760Z,1.55
2022-10-18T03:15:27.888Z,1.90
2022-10-18T03:17:57.247Z,1.80
2022-10-18T03:20:26.348Z,1.90
2022-10-18T03:22:57.188Z,2.00
2022-10-18T03:25:26.396Z,2.00
2022-10-18T03:27:55.690Z,2.13
2022-10-18T03:30:24.789Z,1.98
2022-10-18T03:32:54.307Z,2.00
2022-10-18T03:35:23.674Z,1.60
2022-10-18T03:37:53.066Z,1.70
2022-10-18T03:40:23.514Z,1.77
2022-10-18T03:42:53.022Z,1.75
2022-10-18T03:45:22.166Z,1.60
2022-10-18T03:47:51.440Z,1.50
2022-10-18T03:50:20.614Z,1.67
2022-10-18T03:52:49.880Z,2.03
2022-10-18T03:55:19.226Z,1.85
2022-10-18T03:57:50.240Z,1.70
2022-10-18T04:00:19.512Z,2.15
2022-10-18T04:02:52.005Z,1.83
2022-10-18T04:07:56.184Z,1.63
2022-10-18T04:10:25.593Z,2.03
2022-10-18T04:12:56.366Z,2.20
2022-10-18T04:15:25.482Z,1.85
2022-10-18T04:17:54.758Z,2.17
2022-10-18T04:20:23.852Z,2.50
2022-10-18T04:22:55.070Z,4.35
2022-10-18T04:25:24.938Z,2.35
2022-10-18T04:27:55.673Z,2.40
2022-10-18T04:30:24.778Z,1.92
2022-10-18T04:32:54.058Z,2.13
2022-10-18T04:35:25.925Z,2.25
2022-10-18T04:37:55.300Z,2.13
2022-10-18T04:40:24.378Z,2.35
2022-10-18T04:42:55.091Z,2.45
2022-10-18T04:45:24.375Z,2.17
2022-10-18T04:47:53.602Z,2.05
2022-10-18T04:50:22.677Z,2.58
2022-10-18T04:52:54.055Z,2.75
2022-10-18T04:55:23.224Z,2.75
2022-10-18T04:57:53.621Z,4.43
2022-10-18T05:00:24.131Z,3.97
2022-10-18T05:02:58.919Z,3.55
2022-10-18T05:05:43.497Z,3.13
2022-10-18T05:08:17.698Z,3.03
2022-10-18T05:10:46.799Z,3.63
2022-10-18T05:13:16.225Z,2.72
2022-10-18T05:15:48.120Z,2.78
2022-10-18T05:18:17.578Z,3.20
2022-10-18T05:20:47.432Z,2.90
2022-10-18T05:23:16.793Z,3.75
2022-10-18T05:25:46.347Z,3.08
2022-10-18T05:28:38.074Z,3.15
2022-10-18T05:31:07.501Z,3.22
2022-10-18T05:33:37.000Z,3.40
2022-10-18T05:36:06.515Z,2.83
2022-10-18T05:41:10.206Z,3.17
2022-10-18T05:43:40.266Z,3.47
2022-10-18T05:46:14.989Z,3.45
2022-10-18T05:48:45.353Z,3.83
2022-10-18T05:51:14.493Z,3.63
2022-10-18T05:53:43.823Z,3.58
2022-10-18T05:56:13.100Z,3.58
2022-10-18T05:58:43.083Z,3.80
2022-10-18T06:01:13.483Z,3.65
2022-10-18T06:03:42.955Z,3.20
2022-10-18T06:06:13.369Z,3.60
2022-10-18T06:08:43.594Z,3.78
2022-10-18T06:11:16.405Z,3.90
2022-10-18T06:13:47.386Z,3.55
2022-10-18T06:16:19.818Z,3.80
2022-10-18T06:18:50.384Z,3.90
2022-10-18T06:21:19.983Z,3.58
2022-10-18T06:23:51.155Z,3.33
2022-10-18T06:26:21.077Z,3.90
2022-10-18T06:28:50.716Z,3.90
2022-10-18T06:31:21.805Z,3.55
2022-10-18T06:33:51.313Z,3.50
2022-10-18T06:36:22.249Z,3.90
2022-10-18T06:38:52.150Z,3.00
2022-10-18T06:41:22.070Z,4.05
2022-10-18T06:43:51.973Z,3.30
2022-10-18T06:46:22.560Z,2.33
2022-10-18T06:48:51.821Z,2.22
2022-10-18T06:51:20.912Z,2.30
2022-10-18T06:53:59.752Z,2.30
2022-10-18T06:56:39.694Z,2.55
2022-10-18T06:59:09.061Z,2.42
2022-10-18T07:01:39.920Z,3.08
2022-10-18T07:04:09.554Z,2.30
2022-10-18T07:06:38.759Z,2.97
2022-10-18T07:09:08.243Z,2.30
2022-10-18T07:11:37.331Z,2.45
2022-10-18T07:14:07.285Z,2.58
2022-10-18T07:16:36.385Z,2.33
2022-10-18T07:19:07.076Z,2.28
2022-10-18T07:21:36.164Z,2.40
2022-10-18T07:24:05.923Z,2.50
2022-10-18T07:26:36.210Z,2.95
2022-10-18T07:29:08.794Z,3.10
2022-10-18T07:31:38.854Z,2.88
2022-10-18T07:34:11.852Z,3.00
2022-10-18T07:36:41.485Z,2.90
2022-10-18T07:39:11.368Z,3.35
2022-10-18T07:41:40.502Z,3.00
2022-10-18T07:44:09.990Z,2.65
2022-10-18T07:46:39.007Z,2.88
2022-10-18T07:49:09.734Z,3.10
2022-10-18T07:51:38.876Z,2.70
2022-10-18T07:54:08.130Z,2.85
2022-10-18T07:56:37.218Z,2.55
2022-10-18T07:59:06.485Z,2.50
2022-10-18T08:01:36.505Z,2.10
2022-10-18T08:04:07.883Z,2.78
2022-10-18T08:06:40.387Z,2.80
2022-10-18T08:09:09.668Z,2.95
2022-10-18T08:11:38.892Z,2.78
2022-10-18T08:14:08.367Z,2.60
2022-10-18T08:16:37.481Z,2.38
2022-10-18T08:19:06.712Z,3.03
2022-10-18T08:21:35.805Z,2.75
2022-10-18T08:24:07.016Z,1.77
2022-10-18T08:26:36.148Z,2.22
2022-10-18T08:29:22.502Z,2.28
2022-10-18T08:31:53.231Z,2.72
2022-10-18T08:34:22.759Z,2.33
2022-10-18T08:36:51.869Z,2.47
2022-10-18T08:39:22.706Z,2.53
2022-10-18T08:42:17.459Z,2.20
2022-10-18T08:44:48.595Z,2.20
2022-10-18T08:47:21.022Z,2.38
2022-10-18T08:49:52.950Z,1.92
2022-10-18T08:52:30.675Z,2.25
2022-10-18T08:55:05.463Z,2.20
2022-10-18T08:57:34.978Z,2.20
2022-10-18T09:00:12.419Z,2.25
2022-10-18T09:03:04.830Z,2.13
2022-10-18T09:05:45.749Z,2.10
2022-10-18T09:08:53.501Z,2.05
2022-10-18T09:11:48.500Z,2.53
2022-10-18T09:14:39.947Z,1.90
2022-10-18T09:17:18.935Z,1.80
2022-10-18T09:20:17.718Z,2.42
2022-10-18T09:22:55.114Z,1.90
2022-10-18T09:25:26.968Z,1.60
2022-10-18T09:28:09.030Z,1.92
2022-10-18T09:30:44.935Z,1.65
2022-10-18T09:33:46.602Z,1.92
2022-10-18T09:36:21.767Z,1.77
2022-10-18T09:38:57.247Z,1.85
2022-10-18T09:41:34.463Z,2.00
2022-10-18T09:44:11.894Z,1.98
2022-10-18T09:46:46.955Z,1.55
2022-10-18T09:51:49.568Z,1.88
2022-10-18T09:54:27.777Z,1.70
2022-10-18T09:57:03.409Z,1.48
2022-10-18T09:59:39.653Z,1.80
2022-10-18T10:02:13.567Z,1.58
2022-10-18T10:04:42.933Z,1.70
2022-10-18T10:07:15.948Z,1.70
2022-10-18T10:09:48.372Z,1.50
2022-10-18T10:12:32.773Z,1.73
2022-10-18T10:15:20.074Z,1.55
2022-10-18T10:17:58.475Z,1.40
2022-10-18T10:20:37.095Z,1.70
2022-10-18T10:25:54.452Z,1.10
2022-10-18T10:28:28.484Z,1.20
2022-10-18T10:31:19.422Z,1.70
2022-10-18T10:33:49.343Z,1.40
2022-10-18T10:36:21.098Z,1.20
2022-10-18T10:39:05.570Z,1.52
2022-10-18T10:41:35.896Z,1.30
2022-10-18T10:44:06.531Z,1.50
2022-10-18T10:46:38.162Z,1.27
2022-10-18T10:49:38.651Z,1.15
2022-10-18T10:52:08.467Z,1.23
2022-10-18T10:54:40.613Z,1.70
2022-10-18T10:57:21.929Z,1.58
2022-10-18T10:59:52.922Z,1.27
2022-10-18T11:02:30.931Z,1.33
2022-10-18T11:05:23.119Z,1.67
2022-10-18T11:07:56.499Z,1.38
2022-10-18T11:10:29.382Z,1.33
2022-10-18T11:13:08.791Z,1.42
2022-10-18T11:15:42.851Z,1.33
2022-10-18T11:18:25.575Z,1.23
2022-10-18T11:20:59.471Z,0.90
2022-10-18T11:23:33.906Z,1.20
2022-10-18T11:26:28.480Z,1.40
2022-10-18T11:29:17.807Z,1.13
2022-10-18T11:31:55.344Z,1.38
2022-10-18T11:34:40.093Z,1.88
2022-10-18T11:37:29.109Z,1.30
2022-10-18T11:40:12.269Z,1.27
2022-10-18T11:42:49.390Z,1.55
2022-10-18T11:48:13.470Z,1.55
2022-10-18T11:50:52.171Z,1.60
2022-10-18T11:53:34.278Z,1.58
2022-10-18T11:56:14.864Z,1.85
2022-10-18T11:58:58.089Z,2.05
2022-10-18T12:01:36.147Z,1.95
2022-10-18T12:04:11.609Z,1.98
2022-10-18T12:06:46.368Z,1.50
2022-10-18T12:09:24.998Z,1.60
2022-10-18T12:11:58.840Z,2.13
2022-10-18T12:14:31.669Z,1.52
2022-10-18T12:17:39.270Z,1.92
2022-10-18T12:19:57.089Z,1.60
2022-10-18T12:22:31.445Z,1.50
2022-10-18T12:25:01.947Z,1.38
2022-10-18T12:27:42.644Z,1.50
2022-10-18T12:30:22.374Z,1.30
2022-10-18T12:33:03.483Z,1.38
2022-10-18T12:36:02.059Z,1.35
2022-10-18T12:38:35.688Z,1.52
2022-10-18T12:41:06.163Z,1.67
2022-10-18T12:43:37.735Z,1.50
2022-10-18T12:46:13.345Z,1.90
2022-10-18T12:48:46.474Z,1.50
2022-10-18T12:51:17.726Z,1.70
2022-10-18T12:53:54.253Z,1.30
2022-10-18T12:56:42.102Z,2.05
2022-10-18T12:59:53.893Z,1.52
2022-10-18T13:02:29.231Z,1.70
2022-10-18T13:05:02.581Z,1.80
2022-10-18T13:07:43.336Z,2.38
2022-10-18T13:10:45.643Z,1.67
2022-10-18T13:13:39.668Z,1.75
2022-10-18T13:16:27.291Z,1.88
2022-10-18T13:18:59.606Z,2.17
2022-10-18T13:21:43.102Z,3.35
2022-10-18T13:24:26.117Z,3.20
2022-10-18T13:27:41.584Z,4.30
2022-10-18T13:30:32.809Z,3.40
2022-10-18T13:33:25.159Z,2.70
2022-10-18T13:35:57.232Z,1.90
2022-10-18T13:38:48.508Z,2.47
2022-10-18T13:41:20.238Z,1.83
2022-10-18T13:44:01.466Z,3.03
2022-10-18T13:47:03.740Z,3.35
2022-10-18T13:49:41.040Z,3.15
2022-10-18T13:52:21.006Z,2.78
2022-10-18T13:55:14.690Z,4.13
2022-10-18T13:57:57.323Z,6.93
2022-10-18T14:00:48.151Z,4.47
2022-10-18T14:03:57.503Z,4.57
2022-10-18T14:06:34.480Z,3.78
2022-10-18T14:09:19.356Z,3.47
2022-10-18T14:12:09.188Z,3.47
2022-10-18T14:14:44.370Z,3.08
2022-10-18T14:19:57.329Z,3.70
2022-10-18T14:22:31.603Z,4.35
2022-10-18T14:25:02.451Z,5.07
2022-10-18T14:27:33.523Z,5.75
2022-10-18T14:30:15.221Z,5.47
2022-10-18T14:32:48.534Z,4.43
2022-10-18T14:35:31.998Z,4.03
2022-10-18T14:38:03.156Z,3.53
2022-10-18T14:40:38.016Z,3.45
2022-10-18T14:43:13.013Z,4.25
2022-10-18T14:45:43.421Z,3.42
2022-10-18T14:48:21.767Z,5.28
2022-10-18T14:50:59.340Z,3.88
2022-10-18T14:53:36.162Z,3.08
2022-10-18T14:56:07.506Z,3.08
2022-10-18T14:58:38.522Z,4.40
2022-10-18T15:01:08.134Z,5.47
2022-10-18T15:03:39.201Z,4.78
2022-10-18T15:06:09.619Z,3.60
2022-10-18T15:08:42.195Z,3.40
2022-10-18T15:11:15.076Z,4.20
2022-10-18T15:13:50.480Z,6.10
2022-10-18T15:16:21.367Z,6.05
2022-10-18T15:19:07.773Z,5.65
2022-10-18T15:21:37.549Z,3.72
2022-10-18T15:24:29.686Z,3.80
2022-10-18T15:27:02.389Z,3.25
2022-10-18T15:29:36.380Z,3.58
2022-10-18T15:32:17.338Z,3.22
2022-10-18T15:34:48.322Z,4.78
2022-10-18T15:37:20.147Z,3.20
2022-10-18T15:39:49.682Z,3.58
2022-10-18T15:42:38.155Z,3.45
2022-10-18T15:45:30.858Z,3.33
2022-10-18T15:48:02.246Z,2.88
2022-10-18T15:50:41.602Z,2.90
2022-10-18T15:53:36.586Z,2.97
2022-10-18T15:56:08.824Z,2.85
2022-10-18T15:58:44.079Z,2.97
2022-10-18T16:03:48.446Z,3.47
2022-10-18T16:06:19.772Z,4.63
2022-10-18T16:08:50.500Z,5.57
2022-10-18T16:11:21.948Z,5.90
2022-10-18T16:13:53.048Z,5.93
2022-10-18T16:16:26.652Z,5.05
2022-10-18T16:18:56.191Z,4.28
2022-10-18T16:21:28.820Z,4.15
2022-10-18T16:23:58.902Z,4.03
2022-10-18T16:26:29.632Z,4.10
2022-10-18T16:29:00.401Z,4.18
2022-10-18T16:31:32.289Z,4.80
2022-10-18T16:34:02.752Z,4.97
2022-10-18T16:36:35.080Z,4.38
2022-10-18T16:39:07.857Z,4.10
2022-10-18T16:41:37.470Z,4.32
2022-10-18T16:44:07.174Z,3.85
2022-10-18T16:46:37.822Z,4.75
2022-10-18T16:49:08.171Z,4.88
2022-10-18T16:51:39.226Z,4.72
2022-10-18T16:54:08.578Z,7.28
2022-10-18T16:56:38.393Z,4.43
2022-10-18T16:59:07.763Z,4.40
2022-10-18T17:01:37.510Z,5.55
2022-10-18T17:04:07.063Z,4.60
2022-10-18T17:06:36.610Z,4.72
2022-10-18T17:09:07.474Z,3.72
2022-10-18T17:11:37.168Z,5.32
2022-10-18T17:14:06.577Z,4.22
2022-10-18T17:16:39.168Z,4.53
2022-10-18T17:19:11.850Z,4.18
2022-10-18T17:21:41.417Z,3.88
2022-10-18T17:24:12.184Z,3.80
2022-10-18T17:26:43.928Z,4.75
2022-10-18T17:29:13.338Z,4.57
2022-10-18T17:31:43.321Z,4.90
2022-10-18T17:34:12.681Z,5.32
2022-10-18T17:36:42.306Z,4.95
2022-10-18T17:39:13.146Z,4.13
2022-10-18T17:41:42.757Z,5.07
2022-10-18T17:44:12.103Z,4.20
2022-10-18T17:46:42.257Z,5.30
2022-10-18T17:49:11.760Z,3.65
2022-10-18T17:51:42.977Z,4.40
2022-10-18T17:54:13.848Z,4.50
2022-10-18T17:56:43.609Z,3.70
2022-10-18T17:59:13.260Z,3.78
2022-10-18T18:01:42.985Z,5.85
2022-10-18T18:04:12.375Z,5.05
2022-10-18T18:06:42.142Z,5.10
2022-10-18T18:09:15.225Z,5.28
2022-10-18T18:11:47.453Z,6.35
2022-10-18T18:14:17.188Z,6.97
2022-10-18T18:16:48.266Z,6.25
2022-10-18T18:19:19.068Z,5.45
2022-10-18T18:21:49.616Z,4.85
2022-10-18T18:24:24.726Z,3.60
2022-10-18T18:26:55.296Z,4.57
2022-10-18T18:29:26.394Z,3.72
2022-10-18T18:31:57.183Z,4.03
2022-10-18T18:34:27.016Z,3.95
2022-10-18T18:36:56.950Z,3.85
2022-10-18T18:39:29.760Z,3.35
2022-10-18T18:41:59.334Z,3.28
2022-10-18T18:44:28.875Z,3.33
2022-10-18T18:46:59.278Z,4.72
2022-10-18T18:49:29.092Z,3.90
2022-10-18T18:51:58.505Z,4.13
2022-10-18T18:54:30.440Z,4.50
2022-10-18T18:57:02.800Z,4.05
2022-10-18T18:59:32.266Z,3.63
2022-10-18T19:02:01.835Z,3.78
2022-10-18T19:04:31.465Z,3.83
2022-10-18T19:07:01.174Z,3.90
2022-10-18T19:09:32.848Z,4.60
2022-10-18T19:12:02.544Z,4.82
2022-10-18T19:14:31.947Z,4.00
2022-10-18T19:17:02.523Z,3.95
2022-10-18T19:19:32.905Z,4.07
2022-10-18T19:22:05.093Z,4.20
2022-10-18T19:24:35.918Z,4.75
2022-10-18T19:27:09.755Z,4.63
2022-10-18T19:29:40.613Z,5.13
2022-10-18T19:32:12.234Z,4.97
2022-10-18T19:34:41.830Z,4.03
2022-10-18T19:37:12.984Z,4.00
2022-10-18T19:39:44.005Z,3.80
2022-10-18T19:42:18.618Z,3.80
2022-10-18T19:44:52.817Z,4.13
2022-10-18T19:47:24.819Z,3.40
2022-10-18T19:49:54.030Z,3.60
2022-10-18T19:52:23.534Z,3.63
2022-10-18T19:54:54.328Z,3.58
2022-10-18T19:57:23.850Z,3.42
2022-10-18T19:59:55.119Z,4.18
2022-10-18T20:02:26.162Z,3.15
2022-10-18T20:04:55.456Z,3.35
2022-10-18T20:07:25.021Z,4.30
2022-10-18T20:09:55.661Z,3.42
2022-10-18T20:12:25.832Z,3.40
2022-10-18T20:14:55.271Z,3.58
2022-10-18T20:17:24.839Z,4.07
2022-10-18T20:19:54.064Z,3.70
2022-10-18T20:22:23.590Z,3.33
2022-10-18T20:24:55.886Z,2.78
2022-10-18T20:27:25.486Z,3.55
2022-10-18T20:29:54.867Z,2.90
2022-10-18T20:32:24.423Z,3.17
2022-10-18T20:34:53.773Z,3.53
2022-10-18T20:37:23.272Z,3.30
2022-10-18T20:39:52.471Z,4.35
2022-10-18T20:42:23.279Z,3.55
2022-10-18T20:44:52.669Z,3.40
2022-10-18T20:47:22.204Z,3.47
2022-10-18T20:49:51.418Z,4.05
2022-10-18T20:52:20.927Z,3.22
2022-10-18T20:54:50.272Z,3.45
2022-10-18T20:57:19.930Z,3.42
2022-10-18T20:59:52.042Z,3.67
2022-10-18T21:02:21.442Z,2.97
2022-10-18T21:04:50.676Z,3.15
2022-10-18T21:07:20.138Z,2.95
2022-10-18T21:09:49.510Z,2.55
2022-10-18T21:12:18.929Z,4.32
2022-10-18T21:14:48.179Z,3.85
2022-10-18T21:17:19.137Z,3.17
2022-10-18T21:19:48.356Z,3.13
2022-10-18T21:22:17.989Z,2.78
2022-10-18T21:24:47.159Z,3.78
2022-10-18T21:27:16.620Z,3.50
2022-10-18T21:29:45.944Z,3.42
2022-10-18T21:32:15.483Z,2.90
2022-10-18T21:34:46.285Z,3.25
2022-10-18T21:37:16.024Z,2.90
2022-10-18T21:39:46.264Z,3.03
2022-10-18T21:42:15.650Z,2.55
2022-10-18T21:44:44.812Z,3.30
2022-10-18T21:47:15.444Z,3.25
2022-10-18T21:49:46.011Z,4.18
2022-10-18T21:52:16.644Z,3.00
2022-10-18T21:54:46.109Z,2.60
2022-10-18T21:57:15.521Z,3.40
2022-10-18T21:59:44.816Z,2.80
2022-10-18T22:02:14.281Z,2.88
2022-10-18T22:04:43.500Z,3.00
2022-10-18T22:07:14.484Z,3.40
2022-10-18T22:09:43.802Z,2.63
2022-10-18T22:12:13.193Z,2.70
2022-10-18T22:14:42.418Z,2.80
2022-10-18T22:17:11.866Z,2.63
2022-10-18T22:19:41.198Z,2.40
2022-10-18T22:22:10.904Z,2.40
2022-10-18T22:24:41.679Z,3.67
2022-10-18T22:27:11.037Z,3.47
2022-10-18T22:29:40.500Z,2.28
2022-10-18T22:32:09.943Z,3.15
2022-10-18T22:34:39.113Z,2.72
2022-10-18T22:37:08.564Z,2.67
2022-10-18T22:39:37.880Z,2.78
2022-10-18T22:42:08.666Z,2.17
2022-10-18T22:44:37.887Z,2.08
2022-10-18T22:47:07.356Z,3.08
2022-10-18T22:49:36.519Z,2.30
2022-10-18T22:52:06.247Z,1.67
2022-10-18T22:54:35.452Z,1.98
2022-10-18T22:57:05.050Z,2.13
2022-10-18T22:59:35.694Z,1.75
2022-10-18T23:02:05.173Z,1.70
2022-10-18T23:04:34.715Z,1.80
2022-10-18T23:07:04.135Z,1.85
2022-10-18T23:09:33.673Z,1.50
2022-10-18T23:12:03.344Z,1.55
2022-10-18T23:14:32.560Z,1.45
2022-10-18T23:17:03.469Z,1.30
2022-10-18T23:19:32.669Z,1.30
2022-10-18T23:22:02.167Z,1.75
2022-10-18T23:24:31.866Z,1.42
2022-10-18T23:27:01.260Z,1.20
2022-10-18T23:29:30.589Z,1.13
2022-10-18T23:31:59.960Z,1.00
2022-10-18T23:34:30.654Z,1.38
2022-10-18T23:37:00.145Z,1.60
2022-10-18T23:39:29.406Z,1.58
2022-10-18T23:41:58.871Z,1.55
2022-10-18T23:44:28.092Z,1.00
2022-10-18T23:46:57.671Z,1.30
2022-10-18T23:49:26.958Z,1.42
2022-10-18T23:51:57.785Z,1.00
2022-10-18T23:54:27.154Z,1.38
2022-10-18T23:56:56.648Z,1.20
2022-10-18T23:59:26.176Z,1.10
